Time;durP1;ratioP1;P1;durP2;ratioP2;P2;SDS_P1;SDS_P2;PMS_P1;PMS_P2;Temp;Humidity;BMP_temperature;BMP_pressure;BME280_temperature;BME280_humidity;BME280_pressure;Samples;Min_cycle;Max_cycle;Signal;HPM_P1;HPM_P2
2022/11/29 00:01:03;;;;;;;23.65;13.68;;;18.20;75.50;;;18.70;42.00;99141.00;4998526;28;20995;-75
2022/11/29 00:03:30;;;;;;;21.90;14.13;;;18.20;75.40;;;18.77;41.87;99133.09;5010267;28;20046;-75
2022/11/29 00:05:56;;;;;;;21.65;13.65;;;18.20;75.50;;;18.76;41.61;99128.75;5010947;28;20595;-75
2022/11/29 00:08:23;;;;;;;18.52;12.63;;;18.10;75.40;;;18.75;42.18;99131.78;5020379;28;20076;-75
2022/11/29 00:10:49;;;;;;;19.50;13.05;;;18.10;75.70;;;18.69;42.17;99133.06;5014101;28;20037;-75
2022/11/29 00:13:16;;;;;;;23.10;14.40;;;18.10;75.60;;;18.66;42.10;99134.50;5014924;28;20040;-75
2022/11/29 00:15:42;;;;;;;19.60;13.15;;;18.10;75.60;;;18.72;41.74;99144.22;5011482;28;20044;-75
2022/11/29 00:18:08;;;;;;;21.75;13.75;;;18.10;75.50;;;18.75;41.89;99129.88;5030500;28;20041;-75
2022/11/29 00:20:34;;;;;;;22.73;14.45;;;18.10;75.50;;;18.74;41.71;99135.66;5013966;28;20038;-75
2022/11/29 00:23:01;;;;;;;21.95;13.85;;;18.10;75.30;;;18.74;41.69;99130.97;5010102;28;20136;-75
2022/11/29 00:25:27;;;;;;;21.98;13.63;;;18.00;75.60;;;18.71;41.78;99128.88;5028444;28;20045;-76
2022/11/29 00:27:53;;;;;;;21.92;13.25;;;18.10;75.80;;;18.67;42.01;99127.88;5009060;28;20092;-76
2022/11/29 00:30:20;;;;;;;25.70;14.27;;;18.00;75.60;;;18.68;42.10;99126.75;4997510;28;20049;-75
2022/11/29 00:32:46;;;;;;;21.40;13.85;;;18.00;75.60;;;18.60;42.12;99124.81;5013021;28;20033;-76
2022/11/29 00:35:12;;;;;;;20.33;13.43;;;18.10;75.40;;;18.61;41.83;99124.47;4997550;28;20052;-75
2022/11/29 00:37:38;;;;;;;18.33;13.05;;;18.10;75.40;;;18.69;41.74;99135.81;5013572;28;20053;-75
2022/11/29 00:40:05;;;;;;;19.58;13.68;;;18.10;75.40;;;18.70;41.76;99124.50;5010864;28;20037;-75
2022/11/29 00:42:31;;;;;;;20.48;13.00;;;18.00;75.40;;;18.71;41.87;99117.06;5013042;28;20053;-75
2022/11/29 00:44:57;;;;;;;17.63;12.27;;;18.00;75.70;;;18.69;42.01;99127.56;5012231;28;20409;-75
2022/11/29 00:47:23;;;;;;;20.85;14.10;;;18.00;75.60;;;18.52;42.04;99126.41;5027296;28;20311;-76
2022/11/29 00:49:49;;;;;;;22.48;13.88;;;18.00;75.40;;;18.56;42.01;99134.81;5009579;28;20099;-75
2022/11/29 00:52:16;;;;;;;24.70;15.10;;;18.00;75.40;;;18.60;41.92;99125.59;5025939;28;20041;-75
2022/11/29 00:54:41;;;;;;;21.20;14.00;;;18.10;75.40;;;18.67;41.55;99122.38;4996733;28;20099;-76
2022/11/29 00:57:08;;;;;;;21.73;14.07;;;18.00;75.40;;;18.57;42.12;99130.91;5012960;28;20061;-75
2022/11/29 00:59:35;;;;;;;19.45;12.70;;;18.00;75.60;;;18.58;42.00;99132.56;5011852;28;20082;-75
2022/11/29 01:02:01;;;;;;;23.73;14.52;;;18.10;75.40;;;18.50;42.03;99128.66;5010101;28;20036;-75
2022/11/29 01:04:27;;;;;;;21.23;14.05;;;18.00;75.30;;;18.49;42.03;99129.75;5010816;28;20462;-75
2022/11/29 01:06:53;;;;;;;29.17;14.73;;;18.00;75.20;;;18.48;42.04;99135.59;4997038;28;20115;-75
2022/11/29 01:09:19;;;;;;;20.88;13.77;;;18.00;75.10;;;18.51;42.06;99138.50;5028117;28;20041;-75
2022/11/29 01:11:47;;;;;;;21.70;12.52;;;17.90;75.40;;;18.61;41.86;99134.66;5023091;28;20038;-75
2022/11/29 01:14:13;;;;;;;23.08;13.98;;;18.00;75.60;;;18.58;42.04;99127.88;4997134;28;20518;-75
2022/11/29 01:16:39;;;;;;;24.30;12.68;;;17.90;75.70;;;18.53;41.95;99124.47;5026932;28;20095;-75
2022/11/29 01:19:06;;;;;;;24.33;13.27;;;17.90;75.40;;;18.56;41.74;99129.31;5013280;28;20041;-76
2022/11/29 01:21:32;;;;;;;20.92;13.40;;;18.00;75.50;;;18.53;41.92;99125.25;5007033;28;20047;-76
2022/11/29 01:23:58;;;;;;;22.58;13.45;;;18.00;75.00;;;18.52;42.03;99131.06;5012969;28;20548;-76
2022/11/29 01:26:26;;;;;;;24.00;13.82;;;17.90;75.10;;;18.51;42.04;99116.53;5012875;28;20034;-75
2022/11/29 01:28:54;;;;;;;24.85;13.13;;;18.00;75.60;;;18.48;42.07;99110.88;4998097;28;20041;-75
2022/11/29 01:31:26;;;;;;;21.02;12.52;;;17.90;75.50;;;18.49;41.97;99104.22;4993004;28;20041;-75
2022/11/29 01:33:57;;;;;;;22.77;14.45;;;17.90;75.50;;;18.47;42.00;99106.47;5027417;28;20476;-75
2022/11/29 01:36:23;;;;;;;;;;;17.90;75.30;;;18.44;41.99;99103.28;5025012;28;20049;-76
2022/11/29 01:38:50;;;;;;;22.38;13.15;;;17.90;75.40;;;18.40;41.88;99110.50;5022990;28;20044;-75
2022/11/29 01:41:23;;;;;;;23.92;14.00;;;17.90;75.30;;;18.47;41.93;99106.47;5012205;28;20055;-75
2022/11/29 01:44:00;;;;;;;20.38;13.10;;;17.90;75.50;;;18.53;42.10;99105.22;4995671;28;20401;-75
2022/11/29 01:46:29;;;;;;;22.13;12.52;;;17.80;75.70;;;18.51;42.19;99100.03;4996664;28;20405;-75
2022/11/29 01:49:18;;;;;;;23.35;13.60;;;17.80;76.00;;;18.51;41.89;99100.03;4996580;28;20077;-75
2022/11/29 01:51:51;;;;;;;19.63;12.73;;;17.80;75.50;;;18.43;41.99;99093.41;5016341;28;20041;-75
2022/11/29 01:54:17;;;;;;;20.45;12.68;;;17.80;75.40;;;18.51;41.82;99108.28;5012263;28;20432;-75
2022/11/29 01:56:44;;;;;;;23.17;14.15;;;17.80;75.30;;;18.48;41.79;99113.63;5026375;28;20064;-75
2022/11/29 01:59:12;;;;;;;23.40;12.02;;;17.80;75.30;;;18.47;42.01;99114.72;4993205;28;20037;-75
2022/11/29 02:01:38;;;;;;;22.80;13.50;;;17.80;75.80;;;18.48;41.87;99110.88;5009831;28;20042;-75
2022/11/29 02:04:04;;;;;;;21.30;12.48;;;17.80;75.90;;;18.42;42.07;99111.00;5007562;28;20037;-75
2022/11/29 02:06:31;;;;;;;21.30;13.40;;;17.80;75.60;;;18.50;41.98;99105.88;5010942;28;20060;-75
2022/11/29 02:08:57;;;;;;;19.95;13.60;;;17.70;75.50;;;18.46;41.87;99102.13;5010840;28;20051;-75
2022/11/29 02:12:05;;;;;;;25.42;14.20;;;17.80;75.60;;;18.41;41.71;99106.63;5011409;28;20435;-75
2022/11/29 02:14:47;;;;;;;22.33;13.50;;;17.80;75.40;;;18.39;42.09;99103.41;5039494;28;20041;-75
2022/11/29 02:17:56;;;;;;;;;;;17.70;75.60;;;18.34;42.34;99106.31;5025851;28;20084;-75
2022/11/29 02:20:44;;;;;;;24.00;13.02;;;17.80;75.80;;;18.39;41.89;99108.91;5036399;28;19925;-76
2022/11/29 02:23:53;;;;;;;26.83;15.15;;;17.80;75.40;;;18.40;41.95;99116.00;5029727;28;20103;-75
2022/11/29 02:27:12;;;;;;;22.35;14.07;;;17.70;75.40;;;18.38;41.99;99115.50;5017733;28;20049;-76
2022/11/29 02:30:15;;;;;;;24.80;12.25;;;17.70;75.40;;;18.38;42.17;99118.25;5040875;28;20041;-75
2022/11/29 02:33:22;;;;;;;27.30;14.38;;;17.70;76.40;;;18.35;42.22;99110.66;5026273;28;20106;-75
2022/11/29 02:35:57;;;;;;;19.15;11.68;;;17.70;76.10;;;18.29;42.16;99114.66;5026205;28;20685;-75
2022/11/29 02:38:44;;;;;;;22.52;13.50;;;17.60;75.90;;;18.36;41.94;99112.25;5027270;28;20184;-75
2022/11/29 02:41:57;;;;;;;22.95;12.35;;;17.60;75.60;;;18.34;41.79;99111.78;5028237;28;20042;-75
2022/11/29 02:44:53;;;;;;;21.75;13.30;;;17.50;75.90;;;18.35;41.87;99118.91;5039858;28;20466;-75
2022/11/29 02:47:41;;;;;;;24.17;13.98;;;17.50;75.80;;;18.37;42.27;99121.34;5025267;28;20079;-75
2022/11/29 02:50:24;;;;;;;27.73;13.23;;;17.50;75.90;;;18.30;42.31;99116.28;5042416;28;20037;-75
2022/11/29 02:53:08;;;;;;;24.20;13.55;;;17.60;76.00;;;18.27;42.02;99114.19;5041213;28;20150;-75
2022/11/29 02:55:50;;;;;;;19.58;12.40;;;17.60;75.60;;;18.38;41.93;99118.25;5027039;28;20068;-75
2022/11/29 02:58:26;;;;;;;20.98;13.70;;;17.60;75.40;;;18.34;41.83;99114.53;5024965;28;20040;-75
2022/11/29 03:01:01;;;;;;;20.05;13.73;;;17.50;75.40;;;18.33;41.81;99121.16;5028388;28;20223;-75
2022/11/29 03:03:36;;;;;;;22.35;12.73;;;17.50;75.60;;;18.28;42.17;99121.28;5010362;28;20626;-75
2022/11/29 03:06:12;;;;;;;22.85;13.98;;;17.50;75.90;;;18.26;42.27;99126.28;5023385;28;20101;-75
2022/11/29 03:08:56;;;;;;;23.00;13.55;;;17.50;75.90;;;18.30;42.04;99130.03;5026902;28;20475;-75
2022/11/29 03:11:52;;;;;;;28.33;14.18;;;17.50;75.90;;;18.28;41.85;99134.22;5024631;28;20037;-75
2022/11/29 03:14:27;;;;;;;22.75;13.73;;;17.50;75.90;;;18.31;41.83;99134.38;5027605;28;20176;-75
2022/11/29 03:16:59;;;;;;;25.88;13.85;;;17.50;75.90;;;18.29;42.07;99135.81;4976205;28;20042;-75
2022/11/29 03:19:37;;;;;;;21.42;12.65;;;17.50;75.90;;;18.07;42.49;99143.00;5042949;28;20103;-75
2022/11/29 03:22:32;;;;;;;24.00;13.23;;;17.50;75.90;;;18.21;42.34;99142.88;5026047;28;20045;-75
2022/11/29 03:25:12;;;;;;;21.45;13.05;;;17.50;75.90;;;18.14;42.23;99139.78;5015652;28;20064;-75
2022/11/29 03:28:04;;;;;;;21.23;12.77;;;17.50;75.60;;;18.18;42.20;99138.84;5026289;28;20396;-75
2022/11/29 03:30:32;;;;;;;27.40;14.70;;;17.50;75.80;;;18.23;41.96;99130.47;5026180;28;20112;-75
2022/11/29 03:33:11;;;;;;;22.20;13.45;;;17.40;75.60;;;18.26;41.96;99136.47;5010602;28;20071;-75
2022/11/29 03:36:07;;;;;;;22.25;12.75;;;17.40;75.80;;;18.27;42.11;99132.56;4994655;28;20033;-76
2022/11/29 03:38:44;;;;;;;24.48;14.30;;;17.50;76.00;;;18.21;42.14;99135.47;5028314;28;20046;-76
2022/11/29 03:41:53;;;;;;;22.65;13.52;;;17.40;75.80;;;18.17;42.23;99133.69;5005633;28;20041;-75
2022/11/29 03:44:24;;;;;;;20.88;12.98;;;17.40;75.80;;;18.21;41.91;99140.16;5026741;28;20044;-75
2022/11/29 03:47:07;;;;;;;20.33;12.18;;;17.40;75.90;;;18.19;41.83;99145.13;5009441;28;20386;-75
2022/11/29 03:49:58;;;;;;;22.77;13.65;;;17.30;75.80;;;18.22;41.86;99144.53;4995907;28;20045;-75
2022/11/29 03:52:53;;;;;;;22.25;13.45;;;17.30;75.70;;;18.16;41.91;99154.00;5027117;28;20037;-75
2022/11/29 03:55:51;;;;;;;21.45;13.57;;;17.40;75.80;;;18.11;42.14;99157.69;5024884;28;20045;-76
2022/11/29 03:58:54;;;;;;;26.33;13.75;;;17.30;75.80;;;18.07;41.63;99161.41;5015308;28;20495;-76
2022/11/29 04:01:41;;;;;;;23.75;13.10;;;17.30;75.40;;;18.08;41.58;99168.50;5041998;28;20095;-76
2022/11/29 04:04:54;;;;;;;25.13;14.80;;;17.20;75.50;;;18.07;41.85;99169.66;5040116;28;20413;-75
2022/11/29 04:08:12;;;;;;;23.20;12.02;;;17.30;75.70;;;18.07;42.27;99167.69;5024300;28;20103;-75
2022/11/29 04:10:59;;;;;;;24.58;13.68;;;17.30;75.70;;;18.05;41.61;99169.94;5030319;28;20408;-75
2022/11/29 04:14:04;;;;;;;21.73;12.57;;;17.30;75.00;;;17.99;41.64;99168.47;5030286;28;20385;-76
2022/11/29 04:17:17;;;;;;;29.10;14.70;;;17.20;75.00;;;18.03;41.29;99182.38;5039005;28;20048;-76
2022/11/29 04:20:08;;;;;;;23.60;14.15;;;17.20;74.80;;;17.91;41.81;99175.53;5028199;28;20099;-76
2022/11/29 04:23:02;;;;;;;20.15;12.60;;;17.20;75.10;;;17.98;41.65;99175.88;5029739;28;20753;-75
2022/11/29 04:25:42;;;;;;;23.05;13.13;;;17.30;75.00;;;18.04;41.23;99173.81;5013677;28;20041;-76
2022/11/29 04:28:50;;;;;;;25.48;13.70;;;17.30;74.10;;;18.05;41.18;99172.69;5029318;28;20425;-76
2022/11/29 04:32:09;;;;;;;22.48;12.88;;;17.30;74.50;;;18.03;41.30;99171.38;5017819;28;20048;-76
2022/11/29 04:35:05;;;;;;;22.58;13.73;;;17.30;74.30;;;17.97;41.17;99176.19;5016574;28;20037;-76
2022/11/29 04:38:07;;;;;;;25.23;14.38;;;17.20;74.70;;;17.97;41.40;99187.97;5027418;28;20175;-76
2022/11/29 04:41:01;;;;;;;21.13;13.43;;;17.20;74.70;;;18.00;41.45;99187.34;5017840;28;20568;-75
2022/11/29 04:43:56;;;;;;;22.80;13.30;;;17.30;74.70;;;17.98;41.16;99186.03;5015727;28;20037;-76
2022/11/29 04:47:11;;;;;;;23.23;13.30;;;17.20;74.20;;;18.00;40.90;99190.09;5028012;28;20049;-76
2022/11/29 04:50:00;;;;;;;27.88;15.80;;;17.20;74.10;;;17.99;40.88;99190.44;5031881;28;20088;-75
2022/11/29 04:53:09;;;;;;;22.33;14.82;;;17.10;73.90;;;17.90;41.36;99195.84;5027968;28;20033;-75
2022/11/29 04:55:48;;;;;;;26.85;14.50;;;17.20;74.50;;;18.04;41.27;99200.44;5050433;28;20052;-75
2022/11/29 04:59:04;;;;;;;20.65;14.18;;;17.30;74.40;;;18.02;40.83;99198.03;4996990;28;20091;-75
2022/11/29 05:01:37;;;;;;;22.55;13.40;;;17.30;73.70;;;18.06;40.73;99198.19;5018490;28;20889;-76
2022/11/29 05:04:36;;;;;;;24.15;14.77;;;17.20;73.70;;;17.92;40.54;99212.81;5026631;28;20102;-76
2022/11/29 05:07:09;;;;;;;24.63;15.57;;;17.20;73.40;;;18.00;40.78;99214.81;5025184;28;20049;-76
2022/11/29 05:09:59;;;;;;;23.98;13.50;;;17.20;73.60;;;18.03;40.94;99215.31;5027773;28;20042;-75
2022/11/29 05:12:37;;;;;;;23.20;12.55;;;17.20;74.10;;;18.05;40.93;99213.06;5027027;28;20038;-75
2022/11/29 05:15:34;;;;;;;22.48;13.75;;;17.30;74.30;;;17.95;40.81;99219.59;5028498;28;20098;-75
2022/11/29 05:18:54;;;;;;;24.35;14.45;;;17.30;73.60;;;17.95;40.77;99228.66;5027867;28;20455;-75
2022/11/29 05:22:01;;;;;;;22.92;13.85;;;17.30;73.40;;;17.98;40.62;99222.53;5025658;28;20441;-75
2022/11/29 05:24:57;;;;;;;20.17;12.68;;;17.40;73.30;;;18.06;41.05;99233.88;5026190;28;20088;-75
2022/11/29 05:28:00;;;;;;;22.80;13.30;;;17.40;73.50;;;18.09;40.79;99236.00;5002345;28;20041;-75
2022/11/29 05:30:49;;;;;;;20.88;12.85;;;17.30;74.00;;;18.10;40.69;99234.91;5027283;28;20033;-75
2022/11/29 05:33:54;;;;;;;21.50;13.55;;;17.30;73.70;;;18.08;40.48;99237.13;5022531;28;20558;-75
2022/11/29 05:36:54;;;;;;;20.40;12.30;;;17.30;73.30;;;18.10;40.41;99243.13;5028925;28;20084;-75
2022/11/29 05:39:35;;;;;;;21.77;13.18;;;17.30;73.10;;;18.13;40.33;99242.50;5028877;28;20052;-75
2022/11/29 05:43:00;;;;;;;24.20;13.67;;;17.30;73.20;;;18.17;40.67;99246.25;5029047;28;20084;-74
2022/11/29 05:45:51;;;;;;;20.60;12.88;;;17.30;73.50;;;18.17;40.63;99249.81;5027290;28;20102;-75
2022/11/29 05:49:03;;;;;;;18.08;12.25;;;17.20;73.90;;;18.17;40.41;99254.50;4997417;28;20046;-75
2022/11/29 05:52:01;;;;;;;;;;;17.20;73.50;;;18.17;40.47;99257.22;5032388;28;20037;-75
2022/11/29 05:54:32;;;;;;;19.25;11.70;;;17.20;73.70;;;18.18;40.67;99256.09;5029799;28;19921;-75
2022/11/29 05:57:36;;;;;;;19.48;12.60;;;17.20;73.60;;;18.21;40.29;99261.75;5010788;28;20056;-75
2022/11/29 06:00:04;;;;;;;22.92;11.38;;;17.30;73.50;;;18.22;40.19;99262.59;5030520;28;20053;-75
2022/11/29 06:02:59;;;;;;;20.35;12.73;;;17.20;73.50;;;18.25;40.44;99267.47;5012091;28;20034;-75
2022/11/29 06:05:59;;;;;;;19.48;11.65;;;17.30;73.80;;;18.28;40.63;99272.31;5006510;28;20096;-74
2022/11/29 06:09:09;;;;;;;20.60;12.73;;;17.30;73.80;;;18.27;40.60;99278.94;5013080;28;20053;-74
2022/11/29 06:11:40;;;;;;;19.83;12.02;;;17.40;73.90;;;18.27;40.49;99284.44;5013919;28;20057;-74
2022/11/29 06:14:55;;;;;;;21.50;12.38;;;17.40;73.70;;;18.35;40.46;99280.13;5024147;28;20481;-74
2022/11/29 06:17:56;;;;;;;20.73;11.30;;;17.40;73.60;;;18.32;40.26;99278.81;5027488;28;20706;-75
2022/11/29 06:20:45;;;;;;;15.70;11.50;;;17.30;73.70;;;18.36;40.48;99279.78;5015329;28;20362;-75
2022/11/29 06:23:51;;;;;;;17.05;11.00;;;17.40;73.90;;;18.37;40.70;99284.19;5030370;28;20128;-75
2022/11/29 06:26:28;;;;;;;16.15;10.18;;;17.40;74.00;;;18.38;40.53;99294.03;5038793;28;20404;-76
2022/11/29 06:29:12;;;;;;;24.77;11.75;;;17.40;73.90;;;18.41;40.47;99293.41;5008780;28;20041;-76
2022/11/29 06:31:43;;;;;;;14.80;10.02;;;17.40;74.00;;;18.42;40.34;99292.28;5025701;28;20111;-76
2022/11/29 06:34:12;;;;;;;19.25;11.20;;;17.40;73.90;;;18.43;40.37;99293.09;5008773;28;20500;-75
2022/11/29 06:36:50;;;;;;;18.73;12.00;;;17.40;74.00;;;18.45;40.58;99293.59;5024376;28;20701;-76
2022/11/29 06:39:17;;;;;;;19.27;12.32;;;17.40;74.20;;;18.49;40.49;99293.78;5014750;28;20444;-76
2022/11/29 06:41:43;;;;;;;18.95;12.85;;;17.40;74.40;;;18.44;40.53;99292.78;5026249;28;20033;-75
2022/11/29 06:44:12;;;;;;;17.27;10.02;;;17.50;74.20;;;18.51;40.44;99297.03;5023355;28;20440;-75
2022/11/29 06:46:48;;;;;;;23.83;12.52;;;17.50;74.00;;;18.52;40.43;99304.13;5008156;28;20041;-75
2022/11/29 06:49:21;;;;;;;16.50;10.88;;;17.50;74.20;;;18.53;40.19;99311.25;5025132;28;20042;-75
2022/11/29 06:52:23;;;;;;;18.35;11.38;;;17.40;73.90;;;18.56;40.60;99310.63;5025243;28;20092;-75
2022/11/29 06:55:37;;;;;;;17.67;10.45;;;17.50;74.50;;;18.63;40.76;99317.28;5026420;28;20115;-75
2022/11/29 06:58:43;;;;;;;18.77;10.38;;;17.40;74.80;;;18.56;40.45;99308.69;5009382;28;21001;-74
2022/11/29 07:01:31;;;;;;;17.88;10.48;;;17.60;74.40;;;18.64;40.17;99312.59;5023677;28;20091;-74
2022/11/29 07:04:19;;;;;;;18.73;10.60;;;17.50;74.10;;;18.64;40.46;99315.34;5027583;28;20041;-74
2022/11/29 07:06:45;;;;;;;17.52;10.65;;;17.50;74.20;;;18.67;40.42;99317.47;5024348;28;20057;-74
2022/11/29 07:09:17;;;;;;;16.10;9.98;;;17.60;74.40;;;18.72;40.49;99317.34;5005786;28;20074;-74
2022/11/29 07:11:44;;;;;;;16.48;9.85;;;17.50;74.60;;;18.74;40.48;99328.03;5024900;28;20090;-74
2022/11/29 07:14:12;;;;;;;18.95;10.07;;;17.50;74.80;;;18.77;40.28;99321.91;5006119;28;20045;-74
2022/11/29 07:16:55;;;;;;;14.75;11.05;;;17.50;74.60;;;18.77;40.41;99322.72;5006602;28;20370;-74
2022/11/29 07:19:37;;;;;;;17.63;10.50;;;17.50;74.40;;;18.83;40.18;99323.41;5037496;28;20048;-74
2022/11/29 07:22:35;;;;;;;20.25;10.93;;;17.60;74.20;;;18.87;40.10;99332.66;5006411;28;20412;-74
2022/11/29 07:25:05;;;;;;;15.98;10.32;;;17.70;74.20;;;18.83;40.27;99328.91;5024938;28;20046;-74
2022/11/29 07:27:41;;;;;;;16.65;10.40;;;17.60;74.50;;;18.89;40.29;99324.91;5022225;28;20133;-74
2022/11/29 07:30:19;;;;;;;17.20;10.18;;;17.60;74.80;;;18.92;40.22;99331.69;5020501;28;20116;-74
2022/11/29 07:33:19;;;;;;;18.05;10.73;;;17.60;74.60;;;18.89;40.13;99329.59;5021695;28;20445;-74
2022/11/29 07:36:12;;;;;;;21.00;10.10;;;17.60;74.40;;;18.97;40.03;99326.88;5022146;28;20076;-74
2022/11/29 07:39:09;;;;;;;16.08;10.27;;;17.60;74.30;;;18.98;39.93;99344.16;5012426;28;20120;-74
2022/11/29 07:41:38;;;;;;;14.93;9.85;;;17.80;74.20;;;19.03;40.04;99338.53;5027824;28;20068;-74
2022/11/29 07:44:11;;;;;;;12.25;8.25;;;17.80;74.40;;;19.07;40.06;99334.03;5027146;28;20122;-74
2022/11/29 07:46:37;;;;;;;15.77;9.95;;;17.80;74.60;;;19.08;40.17;99332.91;5027346;28;20535;-74
2022/11/29 07:49:04;;;;;;;16.83;9.85;;;17.80;74.40;;;19.11;39.78;99334.19;5024473;28;20049;-74
2022/11/29 07:51:30;;;;;;;14.77;9.13;;;17.80;74.20;;;19.10;39.98;99336.13;5028594;28;20037;-74
2022/11/29 07:53:56;;;;;;;12.50;9.45;;;17.90;74.20;;;19.15;39.76;99338.75;5024556;28;20264;-74
2022/11/29 07:56:22;;;;;;;13.05;9.13;;;17.90;74.00;;;19.20;39.96;99341.34;5025390;28;20049;-74
2022/11/29 07:58:48;;;;;;;14.48;9.07;;;17.90;74.40;;;19.21;40.05;99343.00;5028502;28;20098;-74
2022/11/29 08:01:14;;;;;;;14.45;9.77;;;17.90;74.50;;;19.22;40.08;99338.31;5028706;28;20049;-74
2022/11/29 08:03:41;;;;;;;14.55;9.05;;;17.90;74.50;;;19.29;40.01;99346.91;5029254;28;20037;-74
2022/11/29 08:06:07;;;;;;;15.70;9.30;;;17.90;74.30;;;19.29;39.71;99339.47;5023767;28;20042;-74
2022/11/29 08:08:33;;;;;;;14.65;9.32;;;18.00;74.30;;;19.27;39.68;99330.72;5043735;28;20064;-74
2022/11/29 08:10:59;;;;;;;13.82;8.90;;;18.00;74.10;;;19.30;39.72;99330.06;5026484;28;20045;-74
2022/11/29 08:13:25;;;;;;;16.00;9.20;;;18.00;74.20;;;19.34;39.97;99340.47;5009751;28;20382;-74
2022/11/29 08:15:52;;;;;;;11.95;8.82;;;18.00;74.50;;;19.39;39.98;99332.88;5026515;28;20048;-74
2022/11/29 08:18:17;;;;;;;13.68;8.73;;;18.00;74.50;;;19.42;39.62;99337.72;5020314;28;20045;-74
2022/11/29 08:20:45;;;;;;;13.50;9.52;;;18.10;74.50;;;19.36;39.96;99335.44;5026025;28;20039;-74
2022/11/29 08:23:11;;;;;;;12.52;9.40;;;18.00;74.20;;;19.42;39.70;99347.91;5026731;28;20272;-74
2022/11/29 08:25:38;;;;;;;13.55;9.80;;;18.10;74.20;;;19.42;39.57;99342.41;5012157;28;20041;-74
2022/11/29 08:28:04;;;;;;;15.32;9.27;;;18.10;74.00;;;19.42;39.83;99348.72;5008820;28;20033;-74
2022/11/29 08:30:31;;;;;;;10.90;7.95;;;18.10;74.20;;;19.39;40.03;99349.38;5007824;28;20421;-74
2022/11/29 08:32:57;;;;;;;13.93;8.75;;;18.10;74.60;;;19.44;39.85;99362.19;5024538;28;20060;-74
2022/11/29 08:35:23;;;;;;;16.10;8.98;;;18.10;74.70;;;19.48;39.74;99360.38;5025518;28;20042;-74
2022/11/29 08:37:49;;;;;;;11.23;8.77;;;18.10;74.40;;;19.48;39.74;99363.13;5026113;28;20045;-74
2022/11/29 08:40:16;;;;;;;12.77;9.15;;;18.20;74.40;;;19.47;39.49;99364.28;4993697;28;20071;-74
2022/11/29 08:42:42;;;;;;;11.73;9.30;;;18.20;74.40;;;19.53;39.67;99366.56;5026147;28;20564;-74
2022/11/29 08:45:09;;;;;;;13.68;9.57;;;18.20;74.00;;;19.49;39.84;99365.59;5025453;28;20087;-74
2022/11/29 08:47:36;;;;;;;12.20;8.77;;;18.20;74.10;;;19.46;39.92;99370.91;5024981;28;20555;-74
2022/11/29 08:50:14;;;;;;;12.02;8.23;;;18.20;74.30;;;19.52;39.80;99370.44;5025917;28;20094;-74
2022/11/29 08:55:35;;;;;;;15.25;9.75;;;18.20;74.40;;;19.50;39.75;99371.91;5009449;28;20041;-74
2022/11/29 08:58:07;;;;;;;12.38;8.85;;;18.20;74.30;;;19.55;39.68;99368.19;5024837;28;20151;-74
2022/11/29 09:00:34;;;;;;;11.48;8.20;;;18.20;74.20;;;19.53;39.68;99368.50;5024356;28;20500;-74
2022/11/29 09:05:46;;;;;;;12.63;8.13;;;18.30;74.50;;;19.58;39.81;99373.06;5023289;28;20049;-74
2022/11/29 09:08:12;;;;;;;13.52;9.35;;;18.30;74.50;;;19.57;39.95;99372.25;5024620;28;20052;-74
2022/11/29 09:10:39;;;;;;;11.55;8.15;;;18.30;74.30;;;19.56;39.79;99370.59;5025064;28;20086;-74
2022/11/29 09:13:07;;;;;;;18.27;9.48;;;18.40;74.10;;;19.57;39.71;99372.25;5026044;28;20051;-74
2022/11/29 09:15:33;;;;;;;13.30;8.23;;;18.40;74.00;;;19.55;39.72;99371.75;5020514;28;20049;-74
2022/11/29 09:17:59;;;;;;;13.13;9.10;;;18.30;73.90;;;19.61;39.77;99373.22;5009548;28;20049;-74
2022/11/29 09:20:25;;;;;;;13.23;9.10;;;18.30;74.20;;;19.63;39.69;99376.47;5025338;28;20473;-74
2022/11/29 09:22:51;;;;;;;12.20;8.35;;;18.30;74.40;;;19.61;39.67;99372.41;5024830;28;20045;-74
2022/11/29 09:25:18;;;;;;;11.77;7.75;;;18.40;74.30;;;19.60;39.66;99371.59;5025550;28;20038;-74
2022/11/29 09:27:44;;;;;;;13.07;8.23;;;18.40;74.00;;;19.61;39.64;99367.72;5020127;28;20117;-74
2022/11/29 09:30:11;;;;;;;11.75;7.80;;;18.40;73.90;;;19.60;39.64;99370.78;5024016;28;20057;-74
2022/11/29 09:32:37;;;;;;;13.02;7.45;;;18.40;73.80;;;19.64;39.74;99366.25;5006487;28;20045;-74
2022/11/29 09:35:04;;;;;;;12.23;8.88;;;18.40;74.00;;;19.66;39.71;99355.75;5025987;28;20041;-74
2022/11/29 09:37:29;;;;;;;10.57;7.50;;;18.40;74.20;;;19.65;39.76;99360.44;5041244;28;20669;-74
2022/11/29 09:39:56;;;;;;;13.25;8.68;;;18.40;74.20;;;19.66;39.69;99359.31;5018912;28;20045;-74
2022/11/29 09:42:39;;;;;;;13.13;8.07;;;18.50;74.00;;;19.65;39.54;99354.94;5025435;28;20048;-74
2022/11/29 09:45:08;;;;;;;11.98;7.88;;;18.50;74.00;;;19.66;39.54;99361.25;5023083;28;20056;-74
2022/11/29 09:48:06;;;;;;;12.05;7.40;;;18.50;73.70;;;19.63;39.48;99350.88;5024668;28;20056;-74
2022/11/29 09:50:41;;;;;;;13.60;8.52;;;18.50;73.70;;;19.65;39.74;99351.38;5024964;28;20041;-74
2022/11/29 09:53:35;;;;;;;11.10;7.53;;;18.50;74.10;;;19.70;39.64;99352.06;5012947;28;20041;-74
2022/11/29 09:56:36;;;;;;;13.30;8.20;;;18.50;74.30;;;19.71;39.54;99344.63;5025136;28;20257;-74
2022/11/29 09:59:04;;;;;;;14.40;7.75;;;18.40;74.10;;;19.68;39.53;99354.31;5026101;28;20544;-74
2022/11/29 10:01:38;;;;;;;12.38;7.97;;;18.50;73.80;;;19.66;39.25;99353.78;5024395;28;20353;-74
2022/11/29 10:04:09;;;;;;;12.18;7.75;;;18.50;73.60;;;19.69;39.53;99355.97;5024102;28;20049;-74
2022/11/29 10:06:39;;;;;;;;;;;18.60;73.60;;;19.68;39.02;99356.28;5022254;28;20053;-74
2022/11/29 10:09:12;;;;;;;9.65;6.95;;;18.50;73.60;;;19.66;39.69;99347.50;5008689;28;19932;-74
2022/11/29 10:12:12;;;;;;;9.98;6.72;;;18.50;73.80;;;19.66;39.69;99353.78;5024279;28;20042;-74
2022/11/29 10:14:56;;;;;;;13.32;8.13;;;18.60;73.70;;;19.68;39.56;99362.56;5023468;28;20041;-74
2022/11/29 10:17:31;;;;;;;12.50;8.05;;;18.60;73.70;;;19.66;39.66;99359.31;5012065;28;20053;-74
2022/11/29 10:20:19;;;;;;;11.45;7.88;;;18.60;73.50;;;19.66;39.50;99359.31;5019493;28;20068;-74
2022/11/29 10:22:56;;;;;;;12.80;7.65;;;18.60;73.30;;;19.65;39.71;99363.19;5021760;28;20091;-74
2022/11/29 10:25:28;;;;;;;12.20;8.02;;;18.60;73.50;;;19.64;39.67;99361.59;5024388;28;20052;-74
2022/11/29 10:27:54;;;;;;;11.68;7.20;;;18.60;73.80;;;19.66;39.69;99353.00;5021351;28;20045;-74
2022/11/29 10:30:20;;;;;;;13.00;8.27;;;18.60;73.80;;;19.67;39.63;99360.16;5021630;28;20049;-74
2022/11/29 10:32:55;;;;;;;12.25;7.97;;;18.60;73.40;;;19.70;39.48;99354.00;5021302;28;20046;-74
2022/11/29 10:35:21;;;;;;;10.52;7.68;;;18.60;73.30;;;19.68;39.36;99356.28;5019741;28;20493;-74
2022/11/29 10:37:47;;;;;;;9.70;7.43;;;18.70;73.20;;;19.69;39.39;99357.88;5029805;28;20455;-74
2022/11/29 10:40:16;;;;;;;11.90;7.43;;;18.70;73.30;;;19.67;39.53;99354.66;5023513;28;20483;-74
2022/11/29 10:42:52;;;;;;;12.43;8.50;;;18.70;73.40;;;19.70;39.48;99360.31;5024898;28;20488;-74
2022/11/29 10:45:44;;;;;;;12.80;8.15;;;18.60;73.40;;;19.67;39.43;99355.47;5008427;28;20041;-74
2022/11/29 10:48:15;;;;;;;10.48;7.18;;;18.70;73.30;;;19.67;39.33;99358.22;5018823;28;20107;-74
2022/11/29 10:50:43;;;;;;;14.57;8.23;;;18.70;73.30;;;19.66;39.20;99359.31;5023120;28;20148;-74
2022/11/29 10:53:27;;;;;;;11.77;7.85;;;18.70;73.30;;;19.66;39.53;99362.06;5008418;28;20119;-74
2022/11/29 10:56:28;;;;;;;12.32;8.07;;;18.70;73.20;;;19.65;39.74;99357.69;5027313;28;20511;-74
2022/11/29 10:59:01;;;;;;;11.73;8.38;;;18.70;73.30;;;19.67;39.74;99352.72;5017273;28;20053;-74
2022/11/29 11:01:29;;;;;;;11.23;8.30;;;18.70;73.50;;;19.67;39.66;99347.22;5024408;28;20096;-74
2022/11/29 11:03:56;;;;;;;12.07;8.18;;;18.70;73.30;;;19.68;39.38;99345.25;5007601;28;20045;-74
2022/11/29 11:06:43;;;;;;;10.85;7.75;;;18.70;73.20;;;19.64;39.28;99341.50;5007409;28;20053;-74